Regina International Airport
CYQR : now visible

Airfield :











YOU CAN JOIN US ON...

 
LOGIN :

Register | Disclaimer

   EN    FR    IT 

 









Legend :    VFR   Marginal VFR   IFR   Intensive IFR   Very Intensive IFR
Visi :
Ceiling :
>= 8 km
>= 3000ft
5 to 8 km
1000 to 3000 ft
1500m to 5 km
500 to 1000 ft
800 to 1500m
200 to 500 ft
< 800m
< 200 ft
Symbols :   Thunderstorms  Fog  Heavy snow  Heavy precipitations  Wind > 20 kt






- Airport Elevation : 1894 ft
- IATA code : YQR


CYQR - Regina International

CURRENT METAR :
  • 220000Z 04006KT 15SM BKN130 OVC240 M03/M10 A3015 RMK AC6CI2 SLP246

EXPIRED METARs :
  • 212300Z 36002KT 15SM FEW035 SCT160 BKN220 M02/M09 A3013 RMK SC1AC3CI3 SLP239
  • 212200Z 00000KT 15SM FEW035 SCT210 M02/M09 A3011 RMK SC1CI3 SLP232

TAF TAF CYQR
Valid from the 22 at 00:00 until the 23 at 00:00 UTC


212338Z 2200/2224 VRB03KT P6SM FEW030 SCT160 BKN220
FM220300 03008KT P6SM SCT020 BKN090
TEMPO 2203/2210 P6SM -SN BKN020 OVC090
FM221000 32008KT P6SM BKN025 BKN100
TEMPO 2210/2218 5SM -SN BKN020 BKN100
FM221800 31015KT P6SM SCT020 BKN040
TEMPO 2218/2224 BKN020 BKN040 RMK NXT FCST BY 220600Z
CZWG FIR / North America



MET'MAP, your aeronautical weather chart ! - Copyright ORBIFLY December 2007 - Disclaimer

ORBIFLY MET'MAP TEAM :

Programming & Development : Alexandra Zaïnal
Concept & original design : Baudouin d'Aumeries
Assistance for programming : Marc-Olivier Méhu
Technical & hardware support : Manuel Goepfert

Contact : metmap@orbifly.com




SOURCES & CREDITS :

   NOAA       Earth
Advisory